States of Jersey

Home Log in

METAR COR EGJJ 191950Z 28003KT 9999 FEW020 13/11 Q1024

METAR EGJB 191950Z 25006KT 9999 FEW015 12/11 Q1023

METAR EGJA 191750Z 27007KT 9999 FEW018 14/11 Q1022

METAR LFRD 192000Z AUTO 21002KT CAVOK 10/09 Q1024 NOSIG

METAR LFRC 192000Z AUTO 22006KT CAVOK 09/07 Q1023